sensor_id;sensor_type;location;lat;lon;timestamp;temperature;humidity
12119;DHT22;6123;48.864;9.200;2022-12-26T00:00:55;12.00;99.90
12119;DHT22;6123;48.864;9.200;2022-12-26T00:03:21;11.90;99.90
12119;DHT22;6123;48.864;9.200;2022-12-26T00:05:47;11.90;99.90
12119;DHT22;6123;48.864;9.200;2022-12-26T00:08:13;11.90;99.90
12119;DHT22;6123;48.864;9.200;2022-12-26T00:10:38;11.90;99.90
12119;DHT22;6123;48.864;9.200;2022-12-26T00:13:06;11.90;99.90
12119;DHT22;6123;48.864;9.200;2022-12-26T00:15:31;11.90;99.90
12119;DHT22;6123;48.864;9.200;2022-12-26T00:17:57;11.90;99.90
12119;DHT22;6123;48.864;9.200;2022-12-26T00:20:25;12.00;99.90
12119;DHT22;6123;48.864;9.200;2022-12-26T00:22:50;12.10;99.90
12119;DHT22;6123;48.864;9.200;2022-12-26T00:25:18;12.10;99.90
12119;DHT22;6123;48.864;9.200;2022-12-26T00:27:46;12.10;99.90
12119;DHT22;6123;48.864;9.200;2022-12-26T00:30:12;12.10;99.90
12119;DHT22;6123;48.864;9.200;2022-12-26T00:32:37;12.10;99.90
12119;DHT22;6123;48.864;9.200;2022-12-26T00:35:03;12.10;99.90
12119;DHT22;6123;48.864;9.200;2022-12-26T00:37:33;12.00;99.90
12119;DHT22;6123;48.864;9.200;2022-12-26T00:39:59;11.80;99.90
12119;DHT22;6123;48.864;9.200;2022-12-26T00:42:27;11.70;99.90
12119;DHT22;6123;48.864;9.200;2022-12-26T00:44:53;11.70;99.90
12119;DHT22;6123;48.864;9.200;2022-12-26T00:47:21;11.60;99.90
12119;DHT22;6123;48.864;9.200;2022-12-26T00:49:46;11.60;99.90
12119;DHT22;6123;48.864;9.200;2022-12-26T00:52:12;11.60;99.90
12119;DHT22;6123;48.864;9.200;2022-12-26T00:54:37;11.50;99.90
12119;DHT22;6123;48.864;9.200;2022-12-26T00:57:03;11.50;99.90
12119;DHT22;6123;48.864;9.200;2022-12-26T00:59:28;11.50;99.90
12119;DHT22;6123;48.864;9.200;2022-12-26T01:01:54;11.50;99.90
12119;DHT22;6123;48.864;9.200;2022-12-26T01:04:22;11.50;99.90
12119;DHT22;6123;48.864;9.200;2022-12-26T01:06:48;11.60;99.90
12119;DHT22;6123;48.864;9.200;2022-12-26T01:09:13;11.60;99.90
12119;DHT22;6123;48.864;9.200;2022-12-26T01:11:39;11.60;99.90
12119;DHT22;6123;48.864;9.200;2022-12-26T01:14:13;11.50;99.90
12119;DHT22;6123;48.864;9.200;2022-12-26T01:16:45;11.50;99.90
12119;DHT22;6123;48.864;9.200;2022-12-26T01:19:12;11.50;99.90
12119;DHT22;6123;48.864;9.200;2022-12-26T01:21:38;11.50;99.90
12119;DHT22;6123;48.864;9.200;2022-12-26T01:24:04;11.40;99.90
12119;DHT22;6123;48.864;9.200;2022-12-26T01:26:31;11.40;99.90
12119;DHT22;6123;48.864;9.200;2022-12-26T01:28:59;11.40;99.90
12119;DHT22;6123;48.864;9.200;2022-12-26T01:31:24;11.40;99.90
12119;DHT22;6123;48.864;9.200;2022-12-26T01:33:50;11.50;99.90
12119;DHT22;6123;48.864;9.200;2022-12-26T01:36:16;11.50;99.90
12119;DHT22;6123;48.864;9.200;2022-12-26T01:38:43;11.50;99.90
12119;DHT22;6123;48.864;9.200;2022-12-26T01:41:09;11.50;99.90
12119;DHT22;6123;48.864;9.200;2022-12-26T01:44:53;11.20;99.90
12119;DHT22;6123;48.864;9.200;2022-12-26T01:46:52;11.10;99.90
12119;DHT22;6123;48.864;9.200;2022-12-26T01:49:25;11.10;99.90
12119;DHT22;6123;48.864;9.200;2022-12-26T01:52:03;11.00;99.90
12119;DHT22;6123;48.864;9.200;2022-12-26T01:54:32;11.00;99.90
12119;DHT22;6123;48.864;9.200;2022-12-26T01:57:03;10.90;99.90
12119;DHT22;6123;48.864;9.200;2022-12-26T01:59:30;10.90;99.90
12119;DHT22;6123;48.864;9.200;2022-12-26T02:01:57;10.80;99.90
12119;DHT22;6123;48.864;9.200;2022-12-26T02:04:34;10.80;99.90
12119;DHT22;6123;48.864;9.200;2022-12-26T02:07:19;10.70;99.90
12119;DHT22;6123;48.864;9.200;2022-12-26T02:09:48;10.70;99.90
12119;DHT22;6123;48.864;9.200;2022-12-26T02:12:22;10.80;99.90
12119;DHT22;6123;48.864;9.200;2022-12-26T02:14:49;10.80;99.90
12119;DHT22;6123;48.864;9.200;2022-12-26T02:17:15;10.80;99.90
12119;DHT22;6123;48.864;9.200;2022-12-26T02:33:29;10.70;99.90
12119;DHT22;6123;48.864;9.200;2022-12-26T02:39:18;10.60;99.90
12119;DHT22;6123;48.864;9.200;2022-12-26T02:42:05;10.70;99.90
12119;DHT22;6123;48.864;9.200;2022-12-26T02:44:42;10.80;99.90
12119;DHT22;6123;48.864;9.200;2022-12-26T02:47:58;11.00;99.90
12119;DHT22;6123;48.864;9.200;2022-12-26T02:51:09;11.00;99.90
12119;DHT22;6123;48.864;9.200;2022-12-26T02:56:48;11.00;99.90
12119;DHT22;6123;48.864;9.200;2022-12-26T02:59:53;11.20;99.90
12119;DHT22;6123;48.864;9.200;2022-12-26T03:05:56;11.10;99.90
12119;DHT22;6123;48.864;9.200;2022-12-26T03:08:51;11.10;99.90
12119;DHT22;6123;48.864;9.200;2022-12-26T03:11:39;11.20;99.90
12119;DHT22;6123;48.864;9.200;2022-12-26T03:14:28;11.30;99.90
12119;DHT22;6123;48.864;9.200;2022-12-26T03:17:07;11.50;99.90
12119;DHT22;6123;48.864;9.200;2022-12-26T03:19:58;11.50;99.90
12119;DHT22;6123;48.864;9.200;2022-12-26T03:22:42;11.30;99.90
12119;DHT22;6123;48.864;9.200;2022-12-26T03:25:23;11.20;99.90
12119;DHT22;6123;48.864;9.200;2022-12-26T03:28:12;11.20;99.90
12119;DHT22;6123;48.864;9.200;2022-12-26T03:30:38;11.20;99.90
12119;DHT22;6123;48.864;9.200;2022-12-26T03:36:10;11.20;99.90
12119;DHT22;6123;48.864;9.200;2022-12-26T03:39:00;11.30;99.90
12119;DHT22;6123;48.864;9.200;2022-12-26T03:42:03;11.30;99.90
12119;DHT22;6123;48.864;9.200;2022-12-26T03:44:59;11.40;99.90
12119;DHT22;6123;48.864;9.200;2022-12-26T03:47:56;11.50;99.90
12119;DHT22;6123;48.864;9.200;2022-12-26T03:50:57;11.60;99.90
12119;DHT22;6123;48.864;9.200;2022-12-26T03:53:49;11.70;99.90
12119;DHT22;6123;48.864;9.200;2022-12-26T03:56:49;11.70;99.90
12119;DHT22;6123;48.864;9.200;2022-12-26T04:00:00;11.70;99.90
12119;DHT22;6123;48.864;9.200;2022-12-26T04:02:46;11.70;99.90
12119;DHT22;6123;48.864;9.200;2022-12-26T04:05:34;11.70;99.90
12119;DHT22;6123;48.864;9.200;2022-12-26T04:08:24;11.90;99.90
12119;DHT22;6123;48.864;9.200;2022-12-26T04:11:14;12.00;99.90
12119;DHT22;6123;48.864;9.200;2022-12-26T04:15:03;12.10;99.90
12119;DHT22;6123;48.864;9.200;2022-12-26T04:17:27;12.00;99.90
12119;DHT22;6123;48.864;9.200;2022-12-26T04:23:05;12.10;99.90
12119;DHT22;6123;48.864;9.200;2022-12-26T04:26:01;12.10;99.90
12119;DHT22;6123;48.864;9.200;2022-12-26T04:28:48;12.10;99.90
12119;DHT22;6123;48.864;9.200;2022-12-26T04:31:41;12.00;99.90
12119;DHT22;6123;48.864;9.200;2022-12-26T04:34:32;11.90;99.90
12119;DHT22;6123;48.864;9.200;2022-12-26T04:37:23;11.80;99.90
12119;DHT22;6123;48.864;9.200;2022-12-26T04:40:13;11.80;99.90
12119;DHT22;6123;48.864;9.200;2022-12-26T04:42:59;11.80;99.90
12119;DHT22;6123;48.864;9.200;2022-12-26T04:45:44;11.80;99.90
12119;DHT22;6123;48.864;9.200;2022-12-26T04:48:12;11.80;99.90
12119;DHT22;6123;48.864;9.200;2022-12-26T04:50:56;11.90;99.90
12119;DHT22;6123;48.864;9.200;2022-12-26T04:53:22;11.90;99.90
12119;DHT22;6123;48.864;9.200;2022-12-26T04:55:48;11.90;99.90
12119;DHT22;6123;48.864;9.200;2022-12-26T04:58:13;11.90;99.90
12119;DHT22;6123;48.864;9.200;2022-12-26T05:00:39;11.80;99.90
12119;DHT22;6123;48.864;9.200;2022-12-26T05:03:05;11.80;99.90
12119;DHT22;6123;48.864;9.200;2022-12-26T05:05:50;11.80;99.90
12119;DHT22;6123;48.864;9.200;2022-12-26T05:08:39;11.80;99.90
12119;DHT22;6123;48.864;9.200;2022-12-26T05:11:24;11.70;99.90
12119;DHT22;6123;48.864;9.200;2022-12-26T05:13:54;11.70;99.90
12119;DHT22;6123;48.864;9.200;2022-12-26T05:16:20;11.90;99.90
12119;DHT22;6123;48.864;9.200;2022-12-26T05:19:11;11.90;99.90
12119;DHT22;6123;48.864;9.200;2022-12-26T05:21:56;11.90;99.90
12119;DHT22;6123;48.864;9.200;2022-12-26T05:24:43;12.00;99.90
12119;DHT22;6123;48.864;9.200;2022-12-26T05:27:40;12.00;99.90
12119;DHT22;6123;48.864;9.200;2022-12-26T05:30:25;12.10;99.90
12119;DHT22;6123;48.864;9.200;2022-12-26T05:32:53;12.10;99.90
12119;DHT22;6123;48.864;9.200;2022-12-26T05:35:38;12.20;99.90
12119;DHT22;6123;48.864;9.200;2022-12-26T05:38:09;12.20;99.90
12119;DHT22;6123;48.864;9.200;2022-12-26T05:40:35;12.20;99.90
12119;DHT22;6123;48.864;9.200;2022-12-26T05:43:00;12.10;99.90
12119;DHT22;6123;48.864;9.200;2022-12-26T05:45:26;12.20;99.90
12119;DHT22;6123;48.864;9.200;2022-12-26T05:47:58;12.20;99.90
12119;DHT22;6123;48.864;9.200;2022-12-26T05:50:24;12.10;99.90
12119;DHT22;6123;48.864;9.200;2022-12-26T05:52:52;12.10;99.90
12119;DHT22;6123;48.864;9.200;2022-12-26T05:55:23;12.20;99.90
12119;DHT22;6123;48.864;9.200;2022-12-26T05:57:49;12.10;99.90
12119;DHT22;6123;48.864;9.200;2022-12-26T06:00:15;12.20;99.90
12119;DHT22;6123;48.864;9.200;2022-12-26T06:02:41;12.20;99.90
12119;DHT22;6123;48.864;9.200;2022-12-26T06:05:06;12.20;99.90
12119;DHT22;6123;48.864;9.200;2022-12-26T06:07:34;12.10;99.90
12119;DHT22;6123;48.864;9.200;2022-12-26T06:10:00;12.10;99.90
12119;DHT22;6123;48.864;9.200;2022-12-26T06:12:26;12.10;99.90
12119;DHT22;6123;48.864;9.200;2022-12-26T06:14:51;12.10;99.90
12119;DHT22;6123;48.864;9.200;2022-12-26T06:17:17;12.10;99.90
12119;DHT22;6123;48.864;9.200;2022-12-26T06:19:45;12.10;99.90
12119;DHT22;6123;48.864;9.200;2022-12-26T06:22:11;12.10;99.90
12119;DHT22;6123;48.864;9.200;2022-12-26T06:24:36;12.10;99.90
12119;DHT22;6123;48.864;9.200;2022-12-26T06:27:02;12.20;99.90
12119;DHT22;6123;48.864;9.200;2022-12-26T06:29:28;12.20;99.90
12119;DHT22;6123;48.864;9.200;2022-12-26T06:31:54;12.20;99.90
12119;DHT22;6123;48.864;9.200;2022-12-26T06:34:19;12.20;99.90
12119;DHT22;6123;48.864;9.200;2022-12-26T06:36:45;12.10;99.90
12119;DHT22;6123;48.864;9.200;2022-12-26T06:39:10;12.00;99.90
12119;DHT22;6123;48.864;9.200;2022-12-26T06:41:36;12.00;99.90
12119;DHT22;6123;48.864;9.200;2022-12-26T06:44:02;11.90;99.90
12119;DHT22;6123;48.864;9.200;2022-12-26T06:46:27;11.90;99.90
12119;DHT22;6123;48.864;9.200;2022-12-26T06:48:53;11.90;99.90
12119;DHT22;6123;48.864;9.200;2022-12-26T06:51:24;11.80;99.90
12119;DHT22;6123;48.864;9.200;2022-12-26T06:53:51;11.80;99.90
12119;DHT22;6123;48.864;9.200;2022-12-26T06:58:43;11.70;99.90
12119;DHT22;6123;48.864;9.200;2022-12-26T07:01:11;11.80;99.90
12119;DHT22;6123;48.864;9.200;2022-12-26T07:03:38;11.80;99.90
12119;DHT22;6123;48.864;9.200;2022-12-26T07:06:05;11.70;99.90
12119;DHT22;6123;48.864;9.200;2022-12-26T07:08:32;11.70;99.90
12119;DHT22;6123;48.864;9.200;2022-12-26T07:10:58;11.70;99.90
12119;DHT22;6123;48.864;9.200;2022-12-26T07:13:23;11.70;99.90
12119;DHT22;6123;48.864;9.200;2022-12-26T07:15:49;11.70;99.90
12119;DHT22;6123;48.864;9.200;2022-12-26T07:18:15;11.70;99.90
12119;DHT22;6123;48.864;9.200;2022-12-26T07:20:40;11.80;99.90
12119;DHT22;6123;48.864;9.200;2022-12-26T07:23:06;11.70;99.90
12119;DHT22;6123;48.864;9.200;2022-12-26T07:25:31;11.70;99.90
12119;DHT22;6123;48.864;9.200;2022-12-26T07:27:57;11.70;99.90
12119;DHT22;6123;48.864;9.200;2022-12-26T07:30:25;11.60;99.90
12119;DHT22;6123;48.864;9.200;2022-12-26T07:32:53;11.70;99.90
12119;DHT22;6123;48.864;9.200;2022-12-26T07:35:18;11.70;99.90
12119;DHT22;6123;48.864;9.200;2022-12-26T07:37:44;11.70;99.90
12119;DHT22;6123;48.864;9.200;2022-12-26T07:40:10;11.70;99.90
12119;DHT22;6123;48.864;9.200;2022-12-26T07:42:36;11.60;99.90
12119;DHT22;6123;48.864;9.200;2022-12-26T07:45:04;11.50;99.90
12119;DHT22;6123;48.864;9.200;2022-12-26T07:47:30;11.50;99.90
12119;DHT22;6123;48.864;9.200;2022-12-26T07:49:57;11.50;99.90
12119;DHT22;6123;48.864;9.200;2022-12-26T07:52:25;11.60;99.90
12119;DHT22;6123;48.864;9.200;2022-12-26T07:54:51;11.60;99.90
12119;DHT22;6123;48.864;9.200;2022-12-26T07:57:17;11.50;99.90
12119;DHT22;6123;48.864;9.200;2022-12-26T07:59:42;11.50;99.90
12119;DHT22;6123;48.864;9.200;2022-12-26T08:02:09;11.60;99.90
12119;DHT22;6123;48.864;9.200;2022-12-26T08:04:35;11.60;99.90
12119;DHT22;6123;48.864;9.200;2022-12-26T08:07:03;11.50;99.90
12119;DHT22;6123;48.864;9.200;2022-12-26T08:09:29;11.60;99.90
12119;DHT22;6123;48.864;9.200;2022-12-26T08:11:54;11.50;99.90
12119;DHT22;6123;48.864;9.200;2022-12-26T08:14:20;11.50;99.90
12119;DHT22;6123;48.864;9.200;2022-12-26T08:16:48;11.40;99.90
12119;DHT22;6123;48.864;9.200;2022-12-26T08:19:13;11.40;99.90
12119;DHT22;6123;48.864;9.200;2022-12-26T08:21:39;11.50;99.90
12119;DHT22;6123;48.864;9.200;2022-12-26T08:24:05;11.50;99.90
12119;DHT22;6123;48.864;9.200;2022-12-26T08:26:30;11.60;99.90
12119;DHT22;6123;48.864;9.200;2022-12-26T08:28:56;11.50;99.90
12119;DHT22;6123;48.864;9.200;2022-12-26T08:31:22;11.40;99.90
12119;DHT22;6123;48.864;9.200;2022-12-26T08:33:48;11.40;99.90
12119;DHT22;6123;48.864;9.200;2022-12-26T08:36:14;11.50;99.90
12119;DHT22;6123;48.864;9.200;2022-12-26T08:38:43;11.50;99.90
12119;DHT22;6123;48.864;9.200;2022-12-26T08:41:09;11.50;99.90
12119;DHT22;6123;48.864;9.200;2022-12-26T08:43:34;11.50;99.90
12119;DHT22;6123;48.864;9.200;2022-12-26T08:46:03;11.50;99.90
12119;DHT22;6123;48.864;9.200;2022-12-26T08:48:30;11.40;99.90
12119;DHT22;6123;48.864;9.200;2022-12-26T08:51:03;11.40;99.90
12119;DHT22;6123;48.864;9.200;2022-12-26T08:53:30;11.40;99.90
12119;DHT22;6123;48.864;9.200;2022-12-26T08:55:57;11.40;99.90
12119;DHT22;6123;48.864;9.200;2022-12-26T08:58:26;11.30;99.90
12119;DHT22;6123;48.864;9.200;2022-12-26T09:00:52;11.30;99.90
12119;DHT22;6123;48.864;9.200;2022-12-26T09:03:20;11.30;99.90
12119;DHT22;6123;48.864;9.200;2022-12-26T09:05:46;11.00;99.90
12119;DHT22;6123;48.864;9.200;2022-12-26T09:08:12;10.80;99.90
12119;DHT22;6123;48.864;9.200;2022-12-26T09:10:38;10.60;99.90
12119;DHT22;6123;48.864;9.200;2022-12-26T09:13:04;10.70;99.90
12119;DHT22;6123;48.864;9.200;2022-12-26T09:15:29;10.80;99.90
12119;DHT22;6123;48.864;9.200;2022-12-26T09:17:55;10.60;99.90
12119;DHT22;6123;48.864;9.200;2022-12-26T09:20:20;10.60;99.90
12119;DHT22;6123;48.864;9.200;2022-12-26T09:22:46;10.50;99.90
12119;DHT22;6123;48.864;9.200;2022-12-26T09:25:19;10.50;99.90
12119;DHT22;6123;48.864;9.200;2022-12-26T09:27:45;10.50;99.90
12119;DHT22;6123;48.864;9.200;2022-12-26T09:30:11;10.40;99.90
12119;DHT22;6123;48.864;9.200;2022-12-26T09:32:37;10.40;99.90
12119;DHT22;6123;48.864;9.200;2022-12-26T09:35:03;10.40;99.90
12119;DHT22;6123;48.864;9.200;2022-12-26T09:37:29;10.20;99.90
12119;DHT22;6123;48.864;9.200;2022-12-26T09:39:55;10.10;99.90
12119;DHT22;6123;48.864;9.200;2022-12-26T09:45:24;10.00;99.90
12119;DHT22;6123;48.864;9.200;2022-12-26T09:50:31;9.90;99.90
12119;DHT22;6123;48.864;9.200;2022-12-26T09:53:01;9.90;99.90
12119;DHT22;6123;48.864;9.200;2022-12-26T09:56:06;9.90;99.90
12119;DHT22;6123;48.864;9.200;2022-12-26T09:58:39;10.00;99.90
12119;DHT22;6123;48.864;9.200;2022-12-26T10:01:14;10.30;99.90
12119;DHT22;6123;48.864;9.200;2022-12-26T10:03:45;10.30;99.90
12119;DHT22;6123;48.864;9.200;2022-12-26T10:06:29;10.30;99.90
12119;DHT22;6123;48.864;9.200;2022-12-26T10:11:59;10.40;99.90
12119;DHT22;6123;48.864;9.200;2022-12-26T10:17:18;10.30;99.90
12119;DHT22;6123;48.864;9.200;2022-12-26T10:25:20;10.40;99.90
12119;DHT22;6123;48.864;9.200;2022-12-26T10:27:49;10.40;99.90
12119;DHT22;6123;48.864;9.200;2022-12-26T10:30:21;10.50;99.90
12119;DHT22;6123;48.864;9.200;2022-12-26T10:32:53;10.60;99.90
12119;DHT22;6123;48.864;9.200;2022-12-26T10:35:32;10.50;99.90
12119;DHT22;6123;48.864;9.200;2022-12-26T10:38:55;10.60;99.90
12119;DHT22;6123;48.864;9.200;2022-12-26T10:41:02;10.60;99.90
12119;DHT22;6123;48.864;9.200;2022-12-26T10:43:33;10.60;99.90
12119;DHT22;6123;48.864;9.200;2022-12-26T10:48:33;10.60;99.90
12119;DHT22;6123;48.864;9.200;2022-12-26T10:50:58;10.60;99.90
12119;DHT22;6123;48.864;9.200;2022-12-26T10:53:24;10.60;99.90
12119;DHT22;6123;48.864;9.200;2022-12-26T10:55:50;10.60;99.90
12119;DHT22;6123;48.864;9.200;2022-12-26T11:00:41;10.60;99.90
12119;DHT22;6123;48.864;9.200;2022-12-26T11:03:09;10.60;99.90
12119;DHT22;6123;48.864;9.200;2022-12-26T11:05:41;10.60;99.90
12119;DHT22;6123;48.864;9.200;2022-12-26T11:08:24;10.60;99.90
12119;DHT22;6123;48.864;9.200;2022-12-26T11:11:09;10.60;99.90
12119;DHT22;6123;48.864;9.200;2022-12-26T11:13:41;10.70;99.90
12119;DHT22;6123;48.864;9.200;2022-12-26T11:16:10;10.70;99.90
12119;DHT22;6123;48.864;9.200;2022-12-26T11:18:47;10.70;99.90
12119;DHT22;6123;48.864;9.200;2022-12-26T11:21:20;10.60;99.90
12119;DHT22;6123;48.864;9.200;2022-12-26T11:23:49;10.60;99.90
12119;DHT22;6123;48.864;9.200;2022-12-26T11:26:27;10.70;99.90
12119;DHT22;6123;48.864;9.200;2022-12-26T11:29:17;10.70;99.90
12119;DHT22;6123;48.864;9.200;2022-12-26T11:31:52;10.70;99.90
12119;DHT22;6123;48.864;9.200;2022-12-26T11:34:25;10.70;99.90
12119;DHT22;6123;48.864;9.200;2022-12-26T11:36:52;10.70;99.90
12119;DHT22;6123;48.864;9.200;2022-12-26T11:39:27;10.70;99.90
12119;DHT22;6123;48.864;9.200;2022-12-26T11:41:57;10.80;99.90
12119;DHT22;6123;48.864;9.200;2022-12-26T11:44:30;10.80;99.90
12119;DHT22;6123;48.864;9.200;2022-12-26T11:47:12;10.80;99.90
12119;DHT22;6123;48.864;9.200;2022-12-26T12:00:27;10.90;99.90
12119;DHT22;6123;48.864;9.200;2022-12-26T12:02:53;11.00;99.90
12119;DHT22;6123;48.864;9.200;2022-12-26T12:11:20;11.00;99.90
12119;DHT22;6123;48.864;9.200;2022-12-26T12:17:05;11.20;99.90
12119;DHT22;6123;48.864;9.200;2022-12-26T12:25:16;11.30;99.90
12119;DHT22;6123;48.864;9.200;2022-12-26T12:30:39;11.30;99.90
12119;DHT22;6123;48.864;9.200;2022-12-26T12:36:11;11.30;99.90
12119;DHT22;6123;48.864;9.200;2022-12-26T12:47:26;11.20;99.90
12119;DHT22;6123;48.864;9.200;2022-12-26T13:00:57;11.10;99.90
12119;DHT22;6123;48.864;9.200;2022-12-26T13:03:30;11.10;99.90
12119;DHT22;6123;48.864;9.200;2022-12-26T13:06:03;11.20;99.90
12119;DHT22;6123;48.864;9.200;2022-12-26T13:11:34;11.20;99.90
12119;DHT22;6123;48.864;9.200;2022-12-26T13:17:02;11.30;99.90
12119;DHT22;6123;48.864;9.200;2022-12-26T13:19:41;11.20;99.90
12119;DHT22;6123;48.864;9.200;2022-12-26T13:22:13;11.20;99.90
12119;DHT22;6123;48.864;9.200;2022-12-26T13:24:44;11.20;99.90
12119;DHT22;6123;48.864;9.200;2022-12-26T13:27:29;11.20;99.90
12119;DHT22;6123;48.864;9.200;2022-12-26T13:29:56;11.20;99.90
12119;DHT22;6123;48.864;9.200;2022-12-26T13:32:27;11.30;99.90
12119;DHT22;6123;48.864;9.200;2022-12-26T13:34:58;11.20;99.90
12119;DHT22;6123;48.864;9.200;2022-12-26T13:40:24;11.20;99.90
12119;DHT22;6123;48.864;9.200;2022-12-26T13:53:26;11.40;99.90
12119;DHT22;6123;48.864;9.200;2022-12-26T13:56:02;11.40;99.90
12119;DHT22;6123;48.864;9.200;2022-12-26T13:58:50;11.40;99.90
12119;DHT22;6123;48.864;9.200;2022-12-26T14:07:04;11.40;99.90
12119;DHT22;6123;48.864;9.200;2022-12-26T14:09:57;11.40;99.90
12119;DHT22;6123;48.864;9.200;2022-12-26T14:15:34;11.30;99.90
12119;DHT22;6123;48.864;9.200;2022-12-26T14:20:53;11.30;99.90
12119;DHT22;6123;48.864;9.200;2022-12-26T14:23:41;11.40;99.90
12119;DHT22;6123;48.864;9.200;2022-12-26T14:29:28;11.30;99.90
12119;DHT22;6123;48.864;9.200;2022-12-26T14:34:58;11.30;99.90
12119;DHT22;6123;48.864;9.200;2022-12-26T14:40:36;11.20;99.90
12119;DHT22;6123;48.864;9.200;2022-12-26T14:45:51;11.20;99.90
12119;DHT22;6123;48.864;9.200;2022-12-26T14:56:30;11.10;99.90
12119;DHT22;6123;48.864;9.200;2022-12-26T15:01:47;11.10;99.90
12119;DHT22;6123;48.864;9.200;2022-12-26T15:15:11;11.10;99.90
12119;DHT22;6123;48.864;9.200;2022-12-26T15:24:10;11.10;99.90
12119;DHT22;6123;48.864;9.200;2022-12-26T15:35:04;11.00;99.90
12119;DHT22;6123;48.864;9.200;2022-12-26T15:40:22;11.00;99.90
12119;DHT22;6123;48.864;9.200;2022-12-26T15:46:28;10.90;99.90
12119;DHT22;6123;48.864;9.200;2022-12-26T15:52:23;11.00;99.90
12119;DHT22;6123;48.864;9.200;2022-12-26T16:00:23;11.00;99.90
12119;DHT22;6123;48.864;9.200;2022-12-26T16:05:50;11.00;99.90
12119;DHT22;6123;48.864;9.200;2022-12-26T16:11:21;11.00;99.90
12119;DHT22;6123;48.864;9.200;2022-12-26T16:16:34;10.90;99.90
12119;DHT22;6123;48.864;9.200;2022-12-26T16:21:43;10.90;99.90
12119;DHT22;6123;48.864;9.200;2022-12-26T16:24:28;10.90;99.90
12119;DHT22;6123;48.864;9.200;2022-12-26T16:26:53;11.00;99.90
12119;DHT22;6123;48.864;9.200;2022-12-26T16:29:23;10.90;99.90
12119;DHT22;6123;48.864;9.200;2022-12-26T16:31:51;10.90;99.90
12119;DHT22;6123;48.864;9.200;2022-12-26T16:34:19;10.90;99.90
12119;DHT22;6123;48.864;9.200;2022-12-26T16:36:49;10.90;99.90
12119;DHT22;6123;48.864;9.200;2022-12-26T16:39:21;10.90;99.90
12119;DHT22;6123;48.864;9.200;2022-12-26T16:42:06;10.90;99.90
12119;DHT22;6123;48.864;9.200;2022-12-26T16:44:38;10.80;99.90
12119;DHT22;6123;48.864;9.200;2022-12-26T16:47:08;10.90;99.90
12119;DHT22;6123;48.864;9.200;2022-12-26T16:49:35;10.90;99.90
12119;DHT22;6123;48.864;9.200;2022-12-26T16:52:01;10.90;99.90
12119;DHT22;6123;48.864;9.200;2022-12-26T16:54:36;10.90;99.90
12119;DHT22;6123;48.864;9.200;2022-12-26T16:57:17;10.90;99.90
12119;DHT22;6123;48.864;9.200;2022-12-26T16:59:53;10.80;99.90
12119;DHT22;6123;48.864;9.200;2022-12-26T17:02:26;10.80;99.90
12119;DHT22;6123;48.864;9.200;2022-12-26T17:04:58;10.80;99.90
12119;DHT22;6123;48.864;9.200;2022-12-26T17:07:24;10.80;99.90
12119;DHT22;6123;48.864;9.200;2022-12-26T17:09:55;10.70;99.90
12119;DHT22;6123;48.864;9.200;2022-12-26T17:12:25;10.70;99.90
12119;DHT22;6123;48.864;9.200;2022-12-26T17:14:53;10.80;99.90
12119;DHT22;6123;48.864;9.200;2022-12-26T17:19:50;10.80;99.90
12119;DHT22;6123;48.864;9.200;2022-12-26T17:22:33;10.70;99.90
12119;DHT22;6123;48.864;9.200;2022-12-26T17:30:45;10.50;99.90
12119;DHT22;6123;48.864;9.200;2022-12-26T17:33:20;10.50;99.90
12119;DHT22;6123;48.864;9.200;2022-12-26T17:35:54;10.50;99.90
12119;DHT22;6123;48.864;9.200;2022-12-26T17:38:26;10.50;99.90
12119;DHT22;6123;48.864;9.200;2022-12-26T17:40:54;10.50;99.90
12119;DHT22;6123;48.864;9.200;2022-12-26T17:43:35;10.40;99.90
12119;DHT22;6123;48.864;9.200;2022-12-26T17:46:02;10.40;99.90
12119;DHT22;6123;48.864;9.200;2022-12-26T17:48:30;10.50;99.90
12119;DHT22;6123;48.864;9.200;2022-12-26T17:50:58;10.40;99.90
12119;DHT22;6123;48.864;9.200;2022-12-26T17:53:29;10.30;99.90
12119;DHT22;6123;48.864;9.200;2022-12-26T17:55:57;10.30;99.90
12119;DHT22;6123;48.864;9.200;2022-12-26T17:58:23;10.30;99.90
12119;DHT22;6123;48.864;9.200;2022-12-26T18:00:50;10.30;99.90
12119;DHT22;6123;48.864;9.200;2022-12-26T18:03:16;10.20;99.90
12119;DHT22;6123;48.864;9.200;2022-12-26T18:05:42;10.10;99.90
12119;DHT22;6123;48.864;9.200;2022-12-26T18:08:33;10.00;99.90
12119;DHT22;6123;48.864;9.200;2022-12-26T18:11:01;10.10;99.90
12119;DHT22;6123;48.864;9.200;2022-12-26T18:13:27;10.00;99.90
12119;DHT22;6123;48.864;9.200;2022-12-26T18:15:54;10.10;99.90
12119;DHT22;6123;48.864;9.200;2022-12-26T18:18:25;10.00;99.90
12119;DHT22;6123;48.864;9.200;2022-12-26T18:20:54;9.90;99.90
12119;DHT22;6123;48.864;9.200;2022-12-26T18:23:19;10.00;99.90
12119;DHT22;6123;48.864;9.200;2022-12-26T18:25:47;10.00;99.90
12119;DHT22;6123;48.864;9.200;2022-12-26T18:28:14;9.90;99.90
12119;DHT22;6123;48.864;9.200;2022-12-26T18:30:40;9.90;99.90
12119;DHT22;6123;48.864;9.200;2022-12-26T18:33:09;10.00;99.90
12119;DHT22;6123;48.864;9.200;2022-12-26T18:35:41;9.90;99.90
12119;DHT22;6123;48.864;9.200;2022-12-26T18:38:17;9.90;99.90
12119;DHT22;6123;48.864;9.200;2022-12-26T18:40:45;9.90;99.90
12119;DHT22;6123;48.864;9.200;2022-12-26T18:43:13;9.80;99.90
12119;DHT22;6123;48.864;9.200;2022-12-26T18:45:39;9.80;99.90
12119;DHT22;6123;48.864;9.200;2022-12-26T18:48:07;9.70;99.90
12119;DHT22;6123;48.864;9.200;2022-12-26T18:50:37;9.60;99.90
12119;DHT22;6123;48.864;9.200;2022-12-26T18:53:03;9.60;99.90
12119;DHT22;6123;48.864;9.200;2022-12-26T18:55:29;9.50;99.90
12119;DHT22;6123;48.864;9.200;2022-12-26T18:57:56;9.50;99.90
12119;DHT22;6123;48.864;9.200;2022-12-26T19:00:23;9.40;99.90
12119;DHT22;6123;48.864;9.200;2022-12-26T19:02:49;9.40;99.90
12119;DHT22;6123;48.864;9.200;2022-12-26T19:05:21;9.40;99.90
12119;DHT22;6123;48.864;9.200;2022-12-26T19:07:48;9.40;99.90
12119;DHT22;6123;48.864;9.200;2022-12-26T19:10:17;9.30;99.90
12119;DHT22;6123;48.864;9.200;2022-12-26T19:12:48;9.30;99.90
12119;DHT22;6123;48.864;9.200;2022-12-26T19:15:16;9.30;99.90
12119;DHT22;6123;48.864;9.200;2022-12-26T19:17:42;9.30;99.90
12119;DHT22;6123;48.864;9.200;2022-12-26T19:20:17;9.30;99.90
12119;DHT22;6123;48.864;9.200;2022-12-26T19:22:46;9.30;99.90
12119;DHT22;6123;48.864;9.200;2022-12-26T19:25:11;9.30;99.90
12119;DHT22;6123;48.864;9.200;2022-12-26T19:27:40;9.10;99.90
12119;DHT22;6123;48.864;9.200;2022-12-26T19:30:11;9.00;99.90
12119;DHT22;6123;48.864;9.200;2022-12-26T19:32:37;8.90;99.90
12119;DHT22;6123;48.864;9.200;2022-12-26T19:35:03;8.80;99.90
12119;DHT22;6123;48.864;9.200;2022-12-26T19:37:29;8.80;99.90
12119;DHT22;6123;48.864;9.200;2022-12-26T19:39:55;8.80;99.90
12119;DHT22;6123;48.864;9.200;2022-12-26T19:42:21;8.80;99.90
12119;DHT22;6123;48.864;9.200;2022-12-26T19:44:49;8.80;99.90
12119;DHT22;6123;48.864;9.200;2022-12-26T19:47:14;8.80;99.90
12119;DHT22;6123;48.864;9.200;2022-12-26T19:49:41;8.80;99.90
12119;DHT22;6123;48.864;9.200;2022-12-26T19:52:10;8.70;99.90
12119;DHT22;6123;48.864;9.200;2022-12-26T19:54:38;8.80;99.90
12119;DHT22;6123;48.864;9.200;2022-12-26T19:57:03;8.80;99.90